Time;durP1;ratioP1;P1;durP2;ratioP2;P2;SDS_P1;SDS_P2;PMS_P1;PMS_P2;Temp;Humidity;BMP_temperature;BMP_pressure;BME280_temperature;BME280_humidity;BME280_pressure;Samples;Min_cycle;Max_cycle;Signal;HPM_P1;HPM_P2
2023/10/30 00:00:26;;;;;;;9.88;3.80;;;;;;;;;;4953068;28;20050;-67
2023/10/30 00:02:52;;;;;;;12.98;3.47;;;;;;;;;;4952582;28;20050;-68
2023/10/30 00:05:18;;;;;;;11.23;3.65;;;;;;;;;;4953675;28;20502;-67
2023/10/30 00:07:43;;;;;;;12.25;3.95;;;;;;;;;;4953308;28;20098;-68
2023/10/30 00:10:09;;;;;;;10.52;3.30;;;;;;;;;;4953373;28;20073;-68
2023/10/30 00:12:35;;;;;;;10.73;3.53;;;;;;;;;;4953597;28;20139;-68
2023/10/30 00:15:03;;;;;;;13.50;3.80;;;;;;;;;;4953785;28;20035;-68
2023/10/30 00:17:32;;;;;;;14.35;4.60;;;;;;;;;;4953931;29;20346;-68
2023/10/30 00:19:59;;;;;;;11.85;3.83;;;;;;;;;;4953165;28;20396;-68
2023/10/30 00:22:25;;;;;;;10.02;4.13;;;;;;;;;;4954093;28;20039;-68
2023/10/30 00:24:50;;;;;;;14.27;3.90;;;;;;;;;;4973006;28;20031;-67
2023/10/30 00:27:16;;;;;;;9.70;3.50;;;;;;;;;;4972710;28;20034;-68
2023/10/30 00:29:42;;;;;;;12.70;3.50;;;;;;;;;;4954731;28;20469;-68
2023/10/30 00:32:08;;;;;;;9.52;3.70;;;;;;;;;;4972711;28;20374;-67
2023/10/30 00:34:35;;;;;;;14.70;3.58;;;;;;;;;;4971108;28;20142;-68
2023/10/30 00:37:01;;;;;;;7.72;3.38;;;;;;;;;;4954013;28;20062;-67
2023/10/30 00:39:29;;;;;;;11.02;3.58;;;;;;;;;;4971534;28;20109;-68
2023/10/30 00:41:55;;;;;;;8.23;3.33;;;;;;;;;;4956083;28;20519;-67
2023/10/30 00:44:20;;;;;;;10.10;3.80;;;;;;;;;;4971602;28;20023;-67
2023/10/30 00:46:46;;;;;;;13.20;3.63;;;;;;;;;;4951892;29;20487;-67
2023/10/30 00:49:13;;;;;;;14.25;4.07;;;;;;;;;;4951186;29;20405;-67
2023/10/30 00:51:39;;;;;;;11.88;4.07;;;;;;;;;;4952953;29;20031;-67
2023/10/30 00:54:05;;;;;;;15.38;4.07;;;;;;;;;;4946037;29;20415;-67
2023/10/30 00:56:30;;;;;;;13.05;4.07;;;;;;;;;;4960586;28;20043;-67
2023/10/30 00:58:56;;;;;;;11.25;3.45;;;;;;;;;;4951145;28;20440;-68
2023/10/30 01:01:25;;;;;;;9.60;3.50;;;;;;;;;;4952634;28;20035;-68
2023/10/30 01:03:50;;;;;;;10.38;3.78;;;;;;;;;;4953165;29;20433;-68
2023/10/30 01:06:16;;;;;;;17.23;4.10;;;;;;;;;;4950594;28;20046;-68
2023/10/30 01:08:42;;;;;;;8.10;3.40;;;;;;;;;;4963149;28;20078;-68
2023/10/30 01:11:07;;;;;;;11.82;3.40;;;;;;;;;;4936980;29;20031;-68
2023/10/30 01:13:33;;;;;;;7.82;3.40;;;;;;;;;;4933496;29;20110;-68
2023/10/30 01:15:59;;;;;;;11.27;3.47;;;;;;;;;;4933125;29;20135;-68
2023/10/30 01:18:24;;;;;;;10.43;3.72;;;;;;;;;;4935266;29;20039;-68
2023/10/30 01:20:51;;;;;;;7.53;3.20;;;;;;;;;;4935969;29;20043;-68
2023/10/30 01:23:17;;;;;;;11.07;3.70;;;;;;;;;;4934631;29;20533;-68
2023/10/30 01:25:46;;;;;;;10.02;4.00;;;;;;;;;;4935763;29;20046;-68
2023/10/30 01:28:11;;;;;;;12.50;3.78;;;;;;;;;;4935587;29;20115;-68
2023/10/30 01:30:38;;;;;;;11.35;4.03;;;;;;;;;;4935716;29;20046;-67
2023/10/30 01:33:04;;;;;;;9.25;4.13;;;;;;;;;;4954520;28;20027;-68
2023/10/30 01:35:30;;;;;;;10.07;3.90;;;;;;;;;;4953598;29;20062;-67
2023/10/30 01:37:55;;;;;;;8.95;4.00;;;;;;;;;;4955076;29;20063;-67
2023/10/30 01:40:21;;;;;;;13.95;3.88;;;;;;;;;;4954436;29;20046;-67
2023/10/30 01:42:47;;;;;;;11.27;3.75;;;;;;;;;;4936985;29;20118;-67
2023/10/30 01:45:12;;;;;;;13.45;3.65;;;;;;;;;;4954443;29;20038;-67
2023/10/30 01:47:39;;;;;;;11.90;4.80;;;;;;;;;;4953225;28;20027;-67
2023/10/30 01:50:07;;;;;;;12.18;4.60;;;;;;;;;;4947404;28;20105;-67
2023/10/30 01:52:34;;;;;;;11.52;4.75;;;;;;;;;;4958586;28;20110;-67
2023/10/30 01:55:00;;;;;;;8.43;5.05;;;;;;;;;;4952893;29;20042;-67
2023/10/30 01:57:28;;;;;;;14.90;5.28;;;;;;;;;;4952615;28;20031;-67
2023/10/30 01:59:56;;;;;;;17.42;4.75;;;;;;;;;;4952838;29;20034;-68
2023/10/30 02:02:22;;;;;;;16.38;5.18;;;;;;;;;;4929560;29;20034;-68
2023/10/30 02:04:48;;;;;;;13.13;5.38;;;;;;;;;;4953057;29;20023;-68
2023/10/30 02:07:14;;;;;;;18.23;6.82;;;;;;;;;;4954255;29;20023;-67
2023/10/30 02:09:42;;;;;;;14.63;6.05;;;;;;;;;;4954087;29;20035;-68
2023/10/30 02:12:08;;;;;;;15.98;5.63;;;;;;;;;;4952730;29;20110;-68
2023/10/30 02:14:34;;;;;;;14.10;5.53;;;;;;;;;;4953753;29;20122;-68
2023/10/30 02:17:00;;;;;;;18.42;5.45;;;;;;;;;;4936535;29;20027;-68
2023/10/30 02:19:27;;;;;;;15.15;5.18;;;;;;;;;;4936522;29;20071;-68
2023/10/30 02:21:56;;;;;;;13.70;5.78;;;;;;;;;;4953885;28;20106;-69
2023/10/30 02:24:22;;;;;;;9.45;5.18;;;;;;;;;;4944443;29;20038;-68
2023/10/30 02:26:50;;;;;;;17.33;5.95;;;;;;;;;;4952705;29;20481;-68
2023/10/30 02:29:16;;;;;;;12.63;6.43;;;;;;;;;;4942449;29;20050;-68
2023/10/30 02:31:42;;;;;;;18.45;6.57;;;;;;;;;;4944667;29;20113;-68
2023/10/30 02:34:08;;;;;;;14.18;6.32;;;;;;;;;;4944330;29;20043;-68
2023/10/30 02:36:34;;;;;;;13.60;5.63;;;;;;;;;;4953787;28;20033;-68
2023/10/30 02:39:03;;;;;;;12.05;5.72;;;;;;;;;;4952344;29;20035;-68
2023/10/30 02:41:31;;;;;;;16.30;5.88;;;;;;;;;;4953908;29;20031;-68
2023/10/30 02:44:00;;;;;;;14.15;6.20;;;;;;;;;;4952342;28;20070;-68
2023/10/30 02:46:26;;;;;;;12.98;6.28;;;;;;;;;;4933635;29;20486;-68
2023/10/30 02:48:52;;;;;;;12.38;5.40;;;;;;;;;;4941272;29;20046;-68
2023/10/30 02:51:18;;;;;;;10.90;4.85;;;;;;;;;;4951615;28;20035;-67
2023/10/30 02:53:45;;;;;;;10.25;4.93;;;;;;;;;;4952506;28;20397;-68
2023/10/30 02:56:10;;;;;;;13.43;5.35;;;;;;;;;;4953265;29;20019;-68
2023/10/30 02:58:36;;;;;;;10.50;5.25;;;;;;;;;;4935739;29;20035;-68
2023/10/30 03:01:02;;;;;;;13.05;5.97;;;;;;;;;;4953146;29;20027;-68
2023/10/30 03:03:29;;;;;;;17.20;7.05;;;;;;;;;;4953193;29;20114;-68
2023/10/30 03:05:55;;;;;;;16.42;5.88;;;;;;;;;;4951877;29;20504;-68
2023/10/30 03:08:21;;;;;;;16.48;6.75;;;;;;;;;;4937460;28;20039;-68
2023/10/30 03:10:47;;;;;;;12.98;6.00;;;;;;;;;;4972672;28;20146;-68
2023/10/30 03:13:13;;;;;;;14.98;6.45;;;;;;;;;;4972546;28;20121;-68
2023/10/30 03:15:40;;;;;;;16.38;6.72;;;;;;;;;;4967641;28;20118;-70
2023/10/30 03:18:06;;;;;;;14.43;6.88;;;;;;;;;;4952961;28;20044;-68
2023/10/30 03:20:32;;;;;;;22.02;6.53;;;;;;;;;;4952990;28;20046;-68
2023/10/30 03:22:57;;;;;;;17.08;6.28;;;;;;;;;;4967199;28;20051;-68
2023/10/30 03:25:23;;;;;;;17.83;5.80;;;;;;;;;;4936119;29;20030;-68
2023/10/30 03:27:49;;;;;;;11.57;5.72;;;;;;;;;;4951360;28;20253;-68
2023/10/30 03:30:16;;;;;;;17.08;5.93;;;;;;;;;;4962137;28;20381;-68
2023/10/30 03:32:41;;;;;;;17.67;6.20;;;;;;;;;;4970582;28;20053;-68
2023/10/30 03:35:07;;;;;;;15.38;5.95;;;;;;;;;;4955010;28;20027;-68
2023/10/30 03:37:33;;;;;;;14.80;5.93;;;;;;;;;;4956360;28;20047;-68
2023/10/30 03:39:59;;;;;;;13.23;5.50;;;;;;;;;;4970804;28;20038;-68
2023/10/30 03:42:24;;;;;;;21.08;6.63;;;;;;;;;;4975713;28;20404;-68
2023/10/30 03:44:50;;;;;;;27.88;8.70;;;;;;;;;;4975861;28;20022;-67
2023/10/30 03:47:16;;;;;;;30.50;7.97;;;;;;;;;;4975476;28;20042;-68
2023/10/30 03:49:41;;;;;;;16.65;6.72;;;;;;;;;;4970431;28;20043;-68
2023/10/30 03:52:07;;;;;;;27.33;7.43;;;;;;;;;;4959960;28;20564;-68
2023/10/30 03:54:33;;;;;;;18.63;7.10;;;;;;;;;;4967515;28;20023;-68
2023/10/30 03:56:58;;;;;;;16.23;7.38;;;;;;;;;;4975315;28;20370;-68
2023/10/30 03:59:24;;;;;;;15.98;7.47;;;;;;;;;;4975057;28;20115;-68
2023/10/30 04:01:50;;;;;;;17.20;6.25;;;;;;;;;;4975468;28;20405;-68
2023/10/30 04:04:16;;;;;;;13.27;5.72;;;;;;;;;;4975344;28;20105;-68
2023/10/30 04:06:42;;;;;;;14.82;6.32;;;;;;;;;;4961703;28;20536;-68
2023/10/30 04:09:08;;;;;;;12.43;5.40;;;;;;;;;;4963580;28;20396;-68
2023/10/30 04:11:34;;;;;;;17.48;5.85;;;;;;;;;;4971290;28;20054;-68
2023/10/30 04:14:00;;;;;;;15.88;6.18;;;;;;;;;;4955912;28;20027;-68
2023/10/30 04:16:25;;;;;;;20.48;6.70;;;;;;;;;;4970791;28;20467;-68
2023/10/30 04:18:51;;;;;;;16.35;5.47;;;;;;;;;;4955404;28;20097;-69
2023/10/30 04:21:17;;;;;;;15.35;6.15;;;;;;;;;;4955599;28;20031;-68
2023/10/30 04:23:43;;;;;;;14.13;5.80;;;;;;;;;;4960210;28;20026;-68
2023/10/30 04:26:10;;;;;;;16.60;6.22;;;;;;;;;;4974976;28;20039;-68
2023/10/30 04:28:36;;;;;;;16.50;6.22;;;;;;;;;;4974581;28;20023;-67
2023/10/30 04:31:02;;;;;;;19.73;7.20;;;;;;;;;;4968778;28;20039;-68
2023/10/30 04:33:29;;;;;;;19.55;5.60;;;;;;;;;;4955284;28;20086;-67
2023/10/30 04:35:54;;;;;;;11.23;4.93;;;;;;;;;;4955256;28;20036;-68
2023/10/30 04:38:24;;;;;;;11.30;5.55;;;;;;;;;;4956181;28;20050;-68
2023/10/30 04:40:49;;;;;;;23.77;5.78;;;;;;;;;;4962241;28;20090;-67
2023/10/30 04:43:15;;;;;;;15.43;6.25;;;;;;;;;;4955572;28;20122;-68
2023/10/30 04:45:41;;;;;;;18.35;6.13;;;;;;;;;;4954389;28;20035;-69
2023/10/30 04:48:06;;;;;;;18.10;5.22;;;;;;;;;;4955031;29;20024;-68
2023/10/30 04:50:32;;;;;;;15.85;5.18;;;;;;;;;;4954655;29;20137;-67
2023/10/30 04:52:58;;;;;;;14.32;5.95;;;;;;;;;;4954319;28;20035;-68
2023/10/30 04:55:24;;;;;;;16.88;5.43;;;;;;;;;;4954455;28;20526;-67
2023/10/30 04:57:49;;;;;;;10.63;5.10;;;;;;;;;;4954976;29;20059;-68
2023/10/30 05:00:15;;;;;;;16.08;5.90;;;;;;;;;;4954999;29;20481;-68
2023/10/30 05:02:42;;;;;;;14.90;5.20;;;;;;;;;;4954808;29;20059;-67
2023/10/30 05:05:08;;;;;;;13.93;5.18;;;;;;;;;;4954772;29;20031;-68
2023/10/30 05:07:34;;;;;;;26.05;6.13;;;;;;;;;;4954367;28;20305;-68
2023/10/30 05:10:00;;;;;;;24.17;6.10;;;;;;;;;;4954418;29;20039;-69
2023/10/30 05:12:25;;;;;;;11.60;4.55;;;;;;;;;;4953665;29;20118;-68
2023/10/30 05:14:51;;;;;;;22.52;6.60;;;;;;;;;;4954218;29;20094;-68
2023/10/30 05:17:18;;;;;;;15.80;5.22;;;;;;;;;;4954325;29;20029;-68
2023/10/30 05:19:44;;;;;;;17.65;5.85;;;;;;;;;;4954556;29;20111;-67
2023/10/30 05:22:09;;;;;;;11.07;5.22;;;;;;;;;;4954531;29;20057;-68
2023/10/30 05:24:35;;;;;;;29.65;7.07;;;;;;;;;;4954142;29;20469;-67
2023/10/30 05:27:01;;;;;;;20.52;6.88;;;;;;;;;;4953133;29;20031;-67
2023/10/30 05:29:26;;;;;;;16.08;6.60;;;;;;;;;;4953989;29;20078;-68
2023/10/30 05:31:52;;;;;;;29.15;7.65;;;;;;;;;;4950264;29;20026;-68
2023/10/30 05:34:18;;;;;;;24.27;8.07;;;;;;;;;;4952479;28;20039;-68
2023/10/30 05:36:43;;;;;;;21.33;7.20;;;;;;;;;;4953870;29;20030;-68
2023/10/30 05:39:09;;;;;;;24.55;8.45;;;;;;;;;;4953721;29;20078;-68
2023/10/30 05:41:35;;;;;;;26.27;6.57;;;;;;;;;;4953741;28;20031;-68
2023/10/30 05:44:01;;;;;;;23.45;8.18;;;;;;;;;;4953149;29;20118;-68
2023/10/30 05:46:26;;;;;;;24.02;7.88;;;;;;;;;;4953448;28;20028;-68
2023/10/30 05:48:52;;;;;;;28.58;7.75;;;;;;;;;;4953379;29;20039;-68
2023/10/30 05:51:18;;;;;;;22.48;7.40;;;;;;;;;;4952800;28;20537;-69
2023/10/30 05:53:44;;;;;;;33.85;8.13;;;;;;;;;;4951676;29;20031;-69
2023/10/30 05:56:09;;;;;;;19.50;6.25;;;;;;;;;;4952933;28;20361;-69
2023/10/30 05:58:35;;;;;;;18.60;5.28;;;;;;;;;;4952208;29;20041;-71
2023/10/30 06:01:01;;;;;;;16.00;5.15;;;;;;;;;;4920427;29;20090;-68
2023/10/30 06:03:27;;;;;;;15.45;5.10;;;;;;;;;;4953024;29;20095;-69
2023/10/30 06:05:52;;;;;;;21.95;5.57;;;;;;;;;;4952804;29;20026;-69
2023/10/30 06:08:22;;;;;;;14.02;5.63;;;;;;;;;;4952553;28;20038;-69
2023/10/30 06:10:47;;;;;;;24.05;5.93;;;;;;;;;;4952565;28;20520;-70
2023/10/30 06:13:13;;;;;;;17.58;4.93;;;;;;;;;;4952805;28;20054;-68
2023/10/30 06:15:39;;;;;;;13.85;4.78;;;;;;;;;;4952953;29;20070;-70
2023/10/30 06:18:05;;;;;;;15.25;4.70;;;;;;;;;;4953028;29;20520;-68
2023/10/30 06:20:31;;;;;;;14.30;5.10;;;;;;;;;;4952872;29;20043;-68
2023/10/30 06:22:57;;;;;;;13.23;5.20;;;;;;;;;;4952216;29;20038;-69
2023/10/30 06:25:24;;;;;;;20.15;5.22;;;;;;;;;;4952777;29;20031;-68
2023/10/30 06:27:50;;;;;;;19.52;6.20;;;;;;;;;;4952399;29;20516;-68
2023/10/30 06:30:17;;;;;;;16.25;4.00;;;;;;;;;;4948654;28;20170;-69
2023/10/30 06:32:43;;;;;;;7.75;3.33;;;;;;;;;;4951606;28;20058;-69
2023/10/30 06:35:09;;;;;;;12.73;3.90;;;;;;;;;;4950819;29;20089;-68
2023/10/30 06:37:35;;;;;;;10.82;3.65;;;;;;;;;;4952714;29;20039;-69
2023/10/30 06:40:03;;;;;;;14.73;3.58;;;;;;;;;;4952635;29;20337;-69
2023/10/30 06:42:28;;;;;;;11.82;3.75;;;;;;;;;;4952105;29;20376;-69
2023/10/30 06:44:54;;;;;;;9.10;3.30;;;;;;;;;;4949059;29;20038;-69
2023/10/30 06:47:20;;;;;;;10.65;3.63;;;;;;;;;;4952026;29;20042;-69
2023/10/30 06:49:46;;;;;;;15.73;3.97;;;;;;;;;;4951928;29;20162;-69
2023/10/30 06:52:11;;;;;;;9.15;3.80;;;;;;;;;;4953253;28;20028;-69
2023/10/30 06:54:38;;;;;;;9.50;4.03;;;;;;;;;;4949060;28;20039;-68
2023/10/30 06:57:03;;;;;;;11.43;4.10;;;;;;;;;;4953856;28;20180;-69
2023/10/30 06:59:29;;;;;;;9.82;3.70;;;;;;;;;;4946277;28;20090;-69
2023/10/30 07:01:55;;;;;;;8.85;3.85;;;;;;;;;;4951284;29;20035;-68
2023/10/30 07:04:22;;;;;;;11.07;3.78;;;;;;;;;;4953336;28;20031;-69
2023/10/30 07:06:48;;;;;;;14.50;4.70;;;;;;;;;;4952813;29;20027;-69
2023/10/30 07:09:15;;;;;;;14.55;4.43;;;;;;;;;;4959228;28;20474;-69
2023/10/30 07:11:41;;;;;;;10.40;3.83;;;;;;;;;;4954385;28;20444;-68
2023/10/30 07:14:08;;;;;;;16.42;4.03;;;;;;;;;;4953667;29;20057;-69
2023/10/30 07:16:34;;;;;;;10.95;4.38;;;;;;;;;;4955102;28;20023;-70
2023/10/30 07:19:00;;;;;;;16.33;4.93;;;;;;;;;;4952317;29;20452;-70
2023/10/30 07:21:27;;;;;;;14.10;4.40;;;;;;;;;;4955294;29;20034;-69
2023/10/30 07:23:54;;;;;;;15.32;4.57;;;;;;;;;;4954955;29;20131;-69
2023/10/30 07:26:21;;;;;;;20.50;4.60;;;;;;;;;;4952799;28;20026;-69
2023/10/30 07:28:50;;;;;;;16.92;5.40;;;;;;;;;;4953460;29;20118;-69
2023/10/30 07:31:18;;;;;;;20.38;5.28;;;;;;;;;;4955276;29;20031;-70
2023/10/30 07:33:49;;;;;;;13.50;5.50;;;;;;;;;;4954653;29;20047;-69
2023/10/30 07:36:15;;;;;;;14.98;5.95;;;;;;;;;;4955662;29;20030;-69
2023/10/30 07:38:41;;;;;;;11.27;5.00;;;;;;;;;;4953453;29;20102;-70
2023/10/30 07:41:07;;;;;;;17.70;5.45;;;;;;;;;;4953497;29;20086;-70
2023/10/30 07:43:34;;;;;;;15.43;5.10;;;;;;;;;;4955184;29;20029;-70
2023/10/30 07:45:59;;;;;;;17.73;6.28;;;;;;;;;;4955016;28;20105;-69
2023/10/30 07:48:28;;;;;;;11.57;4.78;;;;;;;;;;4955093;29;20409;-69
2023/10/30 07:50:53;;;;;;;9.30;4.28;;;;;;;;;;4954916;29;20090;-69
2023/10/30 07:53:19;;;;;;;12.70;4.22;;;;;;;;;;4955439;28;20035;-69
2023/10/30 07:55:46;;;;;;;13.18;3.80;;;;;;;;;;4955358;29;20424;-70
2023/10/30 07:58:12;;;;;;;7.85;3.38;;;;;;;;;;4954689;29;20082;-70
2023/10/30 08:00:39;;;;;;;9.27;2.80;;;;;;;;;;4955073;29;20648;-70
2023/10/30 08:03:06;;;;;;;7.47;2.60;;;;;;;;;;4955679;28;20030;-69
2023/10/30 08:05:32;;;;;;;13.73;3.47;;;;;;;;;;4955846;28;20042;-68
2023/10/30 08:07:58;;;;;;;8.75;3.20;;;;;;;;;;4948851;29;20031;-69
2023/10/30 08:10:24;;;;;;;6.47;2.83;;;;;;;;;;4954549;29;20130;-69
2023/10/30 08:12:50;;;;;;;9.27;3.30;;;;;;;;;;4966545;28;20506;-69
2023/10/30 08:15:16;;;;;;;9.20;3.72;;;;;;;;;;4956778;28;20035;-69
2023/10/30 08:17:41;;;;;;;7.18;2.45;;;;;;;;;;4954457;29;20110;-71
2023/10/30 08:20:09;;;;;;;9.57;3.03;;;;;;;;;;4953665;29;20030;-69
2023/10/30 08:22:36;;;;;;;8.80;2.47;;;;;;;;;;4954042;28;20066;-70
2023/10/30 08:25:02;;;;;;;10.20;3.10;;;;;;;;;;4952689;28;20031;-69
2023/10/30 08:27:28;;;;;;;21.92;5.07;;;;;;;;;;4954521;28;20054;-68
2023/10/30 08:29:54;;;;;;;8.98;3.22;;;;;;;;;;4952676;28;20102;-68
2023/10/30 08:32:20;;;;;;;11.15;3.17;;;;;;;;;;4953805;28;20398;-69
2023/10/30 08:34:46;;;;;;;9.43;2.95;;;;;;;;;;4952765;29;20038;-68
2023/10/30 08:37:11;;;;;;;6.85;2.70;;;;;;;;;;4953695;28;20101;-68
2023/10/30 08:39:37;;;;;;;6.90;2.42;;;;;;;;;;4953815;29;20493;-69
2023/10/30 08:42:04;;;;;;;9.57;2.55;;;;;;;;;;4954291;28;20027;-68
2023/10/30 08:44:31;;;;;;;7.55;2.53;;;;;;;;;;4953706;29;20452;-68
2023/10/30 08:46:57;;;;;;;12.68;3.20;;;;;;;;;;4954073;29;20345;-69
2023/10/30 08:49:23;;;;;;;10.02;3.17;;;;;;;;;;4954075;29;20039;-68
2023/10/30 08:51:49;;;;;;;5.43;2.45;;;;;;;;;;4953838;29;20050;-69
2023/10/30 08:54:15;;;;;;;9.23;2.60;;;;;;;;;;4954464;28;20035;-69
2023/10/30 08:56:42;;;;;;;7.15;2.30;;;;;;;;;;4953399;28;20046;-69
2023/10/30 08:59:08;;;;;;;15.82;3.00;;;;;;;;;;4952729;29;20035;-69
2023/10/30 09:01:33;;;;;;;10.23;2.80;;;;;;;;;;4954327;29;20035;-69
2023/10/30 09:03:59;;;;;;;7.82;2.67;;;;;;;;;;4952774;29;20063;-68
2023/10/30 09:06:26;;;;;;;13.52;3.17;;;;;;;;;;4953299;29;20030;-68
2023/10/30 09:08:53;;;;;;;13.70;3.33;;;;;;;;;;4952869;29;20481;-69
2023/10/30 09:11:18;;;;;;;8.77;3.08;;;;;;;;;;4953405;29;20074;-68
2023/10/30 09:13:44;;;;;;;10.38;3.42;;;;;;;;;;4953874;29;20059;-68
2023/10/30 09:16:11;;;;;;;13.13;3.90;;;;;;;;;;4954246;29;20078;-68
2023/10/30 09:18:37;;;;;;;9.75;3.85;;;;;;;;;;4954009;29;20067;-69
2023/10/30 09:21:03;;;;;;;13.55;3.33;;;;;;;;;;4953945;29;20413;-67
2023/10/30 09:23:29;;;;;;;10.13;3.00;;;;;;;;;;4953499;29;20039;-67
2023/10/30 09:25:55;;;;;;;8.93;2.55;;;;;;;;;;4953336;28;20031;-69
2023/10/30 09:28:21;;;;;;;14.00;3.25;;;;;;;;;;4952912;29;20073;-69
2023/10/30 09:30:47;;;;;;;9.23;2.90;;;;;;;;;;4954044;29;20503;-68
2023/10/30 09:33:13;;;;;;;13.18;2.88;;;;;;;;;;4954029;29;20058;-68
2023/10/30 09:35:38;;;;;;;9.25;3.00;;;;;;;;;;4962227;28;20066;-68
2023/10/30 09:38:05;;;;;;;10.23;3.10;;;;;;;;;;4973158;28;20438;-69
2023/10/30 09:40:30;;;;;;;8.45;2.60;;;;;;;;;;4972386;28;20094;-68
2023/10/30 09:42:56;;;;;;;8.88;3.10;;;;;;;;;;4972608;28;20042;-69
2023/10/30 09:45:24;;;;;;;9.35;2.50;;;;;;;;;;4972987;28;20022;-69
2023/10/30 09:47:54;;;;;;;10.65;3.30;;;;;;;;;;4972369;28;20041;-68
2023/10/30 09:50:21;;;;;;;8.75;2.90;;;;;;;;;;4972423;28;20114;-68
2023/10/30 09:52:51;;;;;;;9.05;2.72;;;;;;;;;;4971735;28;20034;-69
2023/10/30 09:55:24;;;;;;;8.18;3.15;;;;;;;;;;4972894;28;20117;-70
2023/10/30 09:57:51;;;;;;;10.40;2.83;;;;;;;;;;4972723;28;20054;-68
2023/10/30 10:00:18;;;;;;;9.82;2.40;;;;;;;;;;4963973;28;20031;-69
2023/10/30 10:02:44;;;;;;;7.82;2.33;;;;;;;;;;4952759;28;20035;-68
2023/10/30 10:05:12;;;;;;;11.88;3.50;;;;;;;;;;4952477;28;20019;-69
2023/10/30 10:07:39;;;;;;;12.18;3.53;;;;;;;;;;4950727;28;20473;-69
2023/10/30 10:10:06;;;;;;;10.27;3.22;;;;;;;;;;4945990;29;20294;-69
2023/10/30 10:12:34;;;;;;;9.43;2.88;;;;;;;;;;4952367;28;20050;-69
2023/10/30 10:15:06;;;;;;;12.43;3.05;;;;;;;;;;4952739;28;20031;-68
2023/10/30 10:17:44;;;;;;;9.63;3.05;;;;;;;;;;4953371;28;20488;-69
2023/10/30 10:20:11;;;;;;;8.48;3.05;;;;;;;;;;4952133;28;20526;-69
2023/10/30 10:22:37;;;;;;;6.72;2.25;;;;;;;;;;4953115;28;20150;-69
2023/10/30 10:25:07;;;;;;;11.23;3.17;;;;;;;;;;4953299;28;20062;-69
2023/10/30 10:27:33;;;;;;;5.47;2.67;;;;;;;;;;4951842;28;20540;-69
2023/10/30 10:29:59;;;;;;;11.07;4.00;;;;;;;;;;4951707;29;20256;-68
2023/10/30 10:32:26;;;;;;;11.68;3.22;;;;;;;;;;4951939;29;20023;-69
2023/10/30 10:35:07;;;;;;;8.55;3.17;;;;;;;;;;4935284;29;20474;-69
2023/10/30 10:37:33;;;;;;;9.02;2.80;;;;;;;;;;4952068;28;20042;-69
2023/10/30 10:40:01;;;;;;;10.32;2.90;;;;;;;;;;4952763;29;20028;-68
2023/10/30 10:42:30;;;;;;;11.25;2.97;;;;;;;;;;4952643;28;20175;-68
2023/10/30 10:44:57;;;;;;;11.93;2.67;;;;;;;;;;4952469;28;20027;-68
2023/10/30 10:47:23;;;;;;;11.15;2.95;;;;;;;;;;4949817;28;20569;-68
2023/10/30 10:49:50;;;;;;;12.23;3.25;;;;;;;;;;4951411;29;20039;-69
2023/10/30 10:52:17;;;;;;;10.10;3.17;;;;;;;;;;4952602;28;20051;-68
2023/10/30 10:55:09;;;;;;;7.78;3.13;;;;;;;;;;4952961;28;20034;-68
2023/10/30 10:57:52;;;;;;;13.48;2.30;;;;;;;;;;4948746;29;20054;-68
2023/10/30 11:00:18;;;;;;;7.70;2.08;;;;;;;;;;4951862;29;20047;-68
2023/10/30 11:02:49;;;;;;;6.40;1.90;;;;;;;;;;4952616;28;20037;-68
2023/10/30 11:05:16;;;;;;;8.32;2.00;;;;;;;;;;4952261;28;20042;-68
2023/10/30 11:07:50;;;;;;;8.93;2.10;;;;;;;;;;4952481;29;20130;-68
2023/10/30 11:10:35;;;;;;;9.80;2.20;;;;;;;;;;4952292;28;20035;-68
2023/10/30 11:13:11;;;;;;;6.05;1.88;;;;;;;;;;4952102;29;20054;-68
2023/10/30 11:15:46;;;;;;;5.80;1.83;;;;;;;;;;4952741;29;20043;-68
2023/10/30 11:18:21;;;;;;;11.85;2.30;;;;;;;;;;4951621;28;20358;-68
2023/10/30 11:20:53;;;;;;;8.43;2.25;;;;;;;;;;4951700;29;20137;-69
2023/10/30 11:23:45;;;;;;;10.10;2.17;;;;;;;;;;4952435;29;20408;-68
2023/10/30 11:26:38;;;;;;;6.28;2.28;;;;;;;;;;4945077;29;20552;-68
2023/10/30 11:29:11;;;;;;;7.45;2.78;;;;;;;;;;4952172;28;20158;-67
2023/10/30 11:32:02;;;;;;;5.93;1.90;;;;;;;;;;4952392;29;20061;-68
2023/10/30 11:34:37;;;;;;;7.65;2.47;;;;;;;;;;4951416;28;20102;-67
2023/10/30 11:37:14;;;;;;;7.40;2.20;;;;;;;;;;4954605;28;20027;-69
2023/10/30 11:39:41;;;;;;;11.45;2.95;;;;;;;;;;4952029;29;20159;-67
2023/10/30 11:42:22;;;;;;;6.22;1.85;;;;;;;;;;4950733;28;20552;-69
2023/10/30 11:45:17;;;;;;;7.20;2.42;;;;;;;;;;4951433;29;20094;-69
2023/10/30 11:47:46;;;;;;;8.15;2.50;;;;;;;;;;4929951;29;20046;-69
2023/10/30 11:50:11;;;;;;;8.13;1.80;;;;;;;;;;4933946;29;20028;-70
2023/10/30 11:52:38;;;;;;;5.50;1.65;;;;;;;;;;4936841;29;20059;-69
2023/10/30 11:55:07;;;;;;;11.52;2.67;;;;;;;;;;4936043;29;20024;-69
2023/10/30 11:57:33;;;;;;;8.52;1.90;;;;;;;;;;4953576;29;20039;-67
2023/10/30 12:00:02;;;;;;;8.95;1.95;;;;;;;;;;4955000;28;20033;-69
2023/10/30 12:02:30;;;;;;;6.78;1.83;;;;;;;;;;4954524;29;20312;-69
2023/10/30 12:05:06;;;;;;;6.80;2.33;;;;;;;;;;4954130;29;20039;-70
2023/10/30 12:07:32;;;;;;;8.95;2.28;;;;;;;;;;4954932;28;20035;-70
2023/10/30 12:10:01;;;;;;;6.68;1.85;;;;;;;;;;4954614;29;20106;-69
2023/10/30 12:12:27;;;;;;;5.78;1.83;;;;;;;;;;4955407;28;20051;-70
2023/10/30 12:14:55;;;;;;;6.70;1.70;;;;;;;;;;4955306;29;20094;-69
2023/10/30 12:17:22;;;;;;;4.53;1.60;;;;;;;;;;4955009;28;20101;-68
2023/10/30 12:19:48;;;;;;;10.70;2.60;;;;;;;;;;4954948;28;20114;-68
2023/10/30 12:22:14;;;;;;;12.57;2.35;;;;;;;;;;4955215;29;20119;-69
2023/10/30 12:24:40;;;;;;;7.63;2.70;;;;;;;;;;4954641;29;20474;-69
2023/10/30 12:27:06;;;;;;;13.20;2.85;;;;;;;;;;4954706;28;20035;-69
2023/10/30 12:29:34;;;;;;;11.48;1.95;;;;;;;;;;4953593;29;20019;-69
2023/10/30 12:32:00;;;;;;;8.77;2.60;;;;;;;;;;4954618;29;20046;-69
2023/10/30 12:34:25;;;;;;;6.85;2.65;;;;;;;;;;4953942;29;20032;-68
2023/10/30 12:36:52;;;;;;;10.52;2.30;;;;;;;;;;4954539;28;20049;-71
2023/10/30 12:39:20;;;;;;;11.43;2.08;;;;;;;;;;4954420;29;20043;-69
2023/10/30 12:41:47;;;;;;;9.65;1.98;;;;;;;;;;4954053;29;20446;-70
2023/10/30 12:44:17;;;;;;;9.20;1.90;;;;;;;;;;4937509;29;20055;-69
2023/10/30 12:46:44;;;;;;;7.95;2.50;;;;;;;;;;4954896;29;20043;-68
2023/10/30 12:49:10;;;;;;;8.65;1.88;;;;;;;;;;4954168;29;20500;-70
2023/10/30 12:51:36;;;;;;;7.25;1.70;;;;;;;;;;4954123;29;20039;-69
2023/10/30 12:54:02;;;;;;;5.40;1.77;;;;;;;;;;4954575;29;20520;-68
2023/10/30 12:56:28;;;;;;;8.63;1.60;;;;;;;;;;4953772;29;20039;-68
2023/10/30 12:58:53;;;;;;;10.20;2.25;;;;;;;;;;4952689;29;20397;-68
2023/10/30 13:01:19;;;;;;;10.77;2.38;;;;;;;;;;4953300;28;20031;-70
2023/10/30 13:03:45;;;;;;;6.47;1.95;;;;;;;;;;4953472;28;20027;-69
2023/10/30 13:06:11;;;;;;;7.88;1.75;;;;;;;;;;4953919;29;20090;-68
2023/10/30 13:08:37;;;;;;;6.72;1.90;;;;;;;;;;4952839;29;20421;-69
2023/10/30 13:11:07;;;;;;;5.80;1.60;;;;;;;;;;4953348;29;20041;-68
2023/10/30 13:13:33;;;;;;;5.18;1.50;;;;;;;;;;4954671;28;20038;-68
2023/10/30 13:16:00;;;;;;;4.00;1.63;;;;;;;;;;4953479;28;20380;-68
2023/10/30 13:18:27;;;;;;;5.32;1.67;;;;;;;;;;4953269;28;20039;-69
2023/10/30 13:20:54;;;;;;;8.88;1.75;;;;;;;;;;4954554;28;20055;-70
2023/10/30 13:23:21;;;;;;;9.63;2.30;;;;;;;;;;4954258;28;20074;-69
2023/10/30 13:25:50;;;;;;;9.10;1.42;;;;;;;;;;4953980;29;20037;-68
2023/10/30 13:28:18;;;;;;;7.70;1.80;;;;;;;;;;4954410;29;20093;-70
2023/10/30 13:30:44;;;;;;;8.98;1.40;;;;;;;;;;4954560;29;20047;-70
2023/10/30 13:33:11;;;;;;;6.82;1.70;;;;;;;;;;4954231;29;20153;-69
2023/10/30 13:35:36;;;;;;;8.00;2.50;;;;;;;;;;4936873;29;20039;-70
2023/10/30 13:38:02;;;;;;;7.13;1.80;;;;;;;;;;4953778;29;20090;-70
2023/10/30 13:40:28;;;;;;;5.40;1.10;;;;;;;;;;4954522;29;20031;-70
2023/10/30 13:42:54;;;;;;;8.48;1.60;;;;;;;;;;4954406;29;20449;-69
2023/10/30 13:45:21;;;;;;;5.05;1.70;;;;;;;;;;4954330;29;20034;-69
2023/10/30 13:47:46;;;;;;;6.20;1.50;;;;;;;;;;4953913;29;20535;-70
2023/10/30 13:50:12;;;;;;;6.57;2.40;;;;;;;;;;4953789;29;20031;-69
2023/10/30 13:52:38;;;;;;;6.13;1.35;;;;;;;;;;4954159;29;20046;-69
2023/10/30 13:55:04;;;;;;;10.25;2.10;;;;;;;;;;4953936;29;20541;-68
2023/10/30 13:57:31;;;;;;;7.15;2.28;;;;;;;;;;4953986;29;20125;-67
2023/10/30 13:59:57;;;;;;;6.68;1.48;;;;;;;;;;4953608;29;20034;-69
2023/10/30 14:02:23;;;;;;;7.78;1.50;;;;;;;;;;4953821;29;20027;-69
2023/10/30 14:04:48;;;;;;;5.88;1.85;;;;;;;;;;4953084;29;20081;-69
2023/10/30 14:07:14;;;;;;;5.13;1.50;;;;;;;;;;4954089;29;20130;-69
2023/10/30 14:09:39;;;;;;;6.05;1.50;;;;;;;;;;4948707;29;20023;-69
2023/10/30 14:12:07;;;;;;;4.57;1.55;;;;;;;;;;4952580;28;20046;-68
2023/10/30 14:14:32;;;;;;;4.28;1.40;;;;;;;;;;4949291;28;20027;-69
2023/10/30 14:16:58;;;;;;;5.00;1.77;;;;;;;;;;4952701;29;20485;-70
2023/10/30 14:19:24;;;;;;;7.68;1.60;;;;;;;;;;4953189;28;20027;-69
2023/10/30 14:21:49;;;;;;;7.35;2.00;;;;;;;;;;4951471;28;20098;-69
2023/10/30 14:24:15;;;;;;;6.47;1.50;;;;;;;;;;4953250;29;20103;-69
2023/10/30 14:26:41;;;;;;;4.65;1.50;;;;;;;;;;4953130;29;20057;-70
2023/10/30 14:29:06;;;;;;;6.15;1.67;;;;;;;;;;4952582;29;20078;-68
2023/10/30 14:31:32;;;;;;;4.85;1.60;;;;;;;;;;4953020;29;20104;-70
2023/10/30 14:33:58;;;;;;;10.40;2.22;;;;;;;;;;4952966;28;20039;-69